Time;durP1;ratioP1;P1;durP2;ratioP2;P2;SDS_P1;SDS_P2;PMS_P1;PMS_P2;Temp;Humidity;BMP_temperature;BMP_pressure;BME280_temperature;BME280_humidity;BME280_pressure;Samples;Min_cycle;Max_cycle;Signal;HPM_P1;HPM_P2
2024/01/27 00:00:10;;;;;;;65.13;59.83;;;2.40;99.90;;;;;;4952260;29;20475;-73
2024/01/27 00:02:36;;;;;;;174.93;163.57;;;2.40;99.90;;;;;;4957538;28;20075;-73
2024/01/27 00:05:02;;;;;;;76.43;70.18;;;2.40;99.90;;;;;;4947470;28;20496;-73
2024/01/27 00:07:28;;;;;;;81.78;75.55;;;2.50;99.90;;;;;;4946120;28;20568;-74
2024/01/27 00:09:55;;;;;;;76.72;70.93;;;2.50;99.90;;;;;;4954932;28;20039;-74
2024/01/27 00:12:21;;;;;;;74.07;68.40;;;2.50;99.90;;;;;;4931016;29;20134;-73
2024/01/27 00:14:47;;;;;;;77.13;70.35;;;2.50;99.90;;;;;;4941618;28;20049;-74
2024/01/27 00:17:13;;;;;;;91.73;85.30;;;2.50;99.90;;;;;;4955235;28;20043;-75
2024/01/27 00:19:38;;;;;;;73.67;67.83;;;2.50;99.90;;;;;;4949849;28;20051;-76
2024/01/27 00:22:04;;;;;;;66.77;61.20;;;2.50;99.90;;;;;;4935944;28;20043;-73
2024/01/27 00:24:30;;;;;;;70.93;65.88;;;2.50;99.90;;;;;;4949237;28;20501;-73
2024/01/27 00:26:56;;;;;;;125.57;116.83;;;2.60;99.90;;;;;;4945056;28;20042;-73
2024/01/27 00:29:22;;;;;;;104.82;97.43;;;2.60;99.90;;;;;;4950151;29;20109;-73
2024/01/27 00:31:49;;;;;;;58.77;54.40;;;2.70;99.90;;;;;;4929227;28;20071;-73
2024/01/27 00:34:15;;;;;;;80.78;74.47;;;2.70;99.90;;;;;;4935776;28;20081;-74
2024/01/27 00:36:42;;;;;;;138.53;129.77;;;2.70;99.90;;;;;;4925670;29;20130;-73
2024/01/27 00:39:08;;;;;;;120.65;112.28;;;2.70;99.90;;;;;;4948788;28;20114;-73
2024/01/27 00:41:34;;;;;;;122.32;114.25;;;2.60;99.90;;;;;;4949135;28;20101;-73
2024/01/27 00:43:59;;;;;;;114.00;106.37;;;2.60;99.90;;;;;;4943656;28;20514;-74
2024/01/27 00:46:25;;;;;;;124.57;116.30;;;2.50;99.90;;;;;;4943400;28;20106;-73
2024/01/27 00:48:51;;;;;;;116.40;108.33;;;2.50;99.90;;;;;;4922766;29;20042;-74
2024/01/27 00:51:16;;;;;;;64.87;59.97;;;2.40;99.90;;;;;;4933875;29;20493;-73
2024/01/27 00:53:42;;;;;;;133.10;124.27;;;2.30;99.90;;;;;;4941669;29;20046;-74
2024/01/27 00:56:08;;;;;;;113.80;105.83;;;2.30;99.90;;;;;;4949646;28;20035;-73
2024/01/27 00:58:34;;;;;;;104.07;97.07;;;2.20;99.90;;;;;;4930852;29;20187;-75
2024/01/27 01:01:01;;;;;;;102.40;95.45;;;2.20;99.90;;;;;;4943044;28;20039;-75
2024/01/27 01:03:26;;;;;;;80.38;74.68;;;2.10;99.90;;;;;;4928762;28;20046;-76
2024/01/27 01:05:52;;;;;;;108.17;100.87;;;2.10;99.90;;;;;;4926711;28;20471;-75
2024/01/27 01:08:18;;;;;;;124.72;116.32;;;2.00;99.90;;;;;;4949026;28;20285;-75
2024/01/27 01:10:44;;;;;;;136.17;126.20;;;2.10;99.90;;;;;;4943310;28;20098;-76
2024/01/27 01:13:10;;;;;;;77.33;71.37;;;2.10;99.90;;;;;;4947900;28;20537;-75
2024/01/27 01:15:35;;;;;;;89.83;82.63;;;2.10;99.90;;;;;;4939771;28;20027;-75
2024/01/27 01:18:01;;;;;;;110.43;102.47;;;2.10;99.90;;;;;;4945498;28;20048;-73
2024/01/27 01:20:27;;;;;;;54.40;49.73;;;2.10;99.90;;;;;;4941908;29;20090;-74
2024/01/27 01:22:53;;;;;;;52.75;47.58;;;2.00;99.90;;;;;;4940058;28;20051;-75
2024/01/27 01:25:19;;;;;;;62.70;56.87;;;2.00;99.90;;;;;;4946795;28;20058;-76
2024/01/27 01:27:46;;;;;;;52.33;47.73;;;2.00;99.90;;;;;;4933631;29;20107;-75
2024/01/27 01:30:12;;;;;;;62.05;56.78;;;2.00;99.90;;;;;;4939097;28;20066;-76
2024/01/27 01:32:38;;;;;;;55.90;51.28;;;2.00;99.90;;;;;;4955608;28;20046;-75
2024/01/27 01:35:04;;;;;;;48.83;44.50;;;2.00;99.90;;;;;;4941976;28;20040;-74
2024/01/27 01:37:29;;;;;;;115.07;106.95;;;2.00;99.90;;;;;;4950116;28;20036;-74
2024/01/27 01:39:55;;;;;;;91.50;84.93;;;2.00;99.90;;;;;;4947758;28;20047;-73
2024/01/27 01:42:24;;;;;;;87.77;81.40;;;2.00;99.90;;;;;;4934400;28;20047;-73
2024/01/27 01:44:53;;;;;;;53.83;48.88;;;1.90;99.90;;;;;;4929174;29;20049;-74
2024/01/27 01:47:19;;;;;;;54.22;49.95;;;1.90;99.90;;;;;;4927190;29;20066;-74
2024/01/27 01:49:45;;;;;;;73.25;68.13;;;1.90;99.90;;;;;;4953870;28;20419;-74
2024/01/27 01:52:11;;;;;;;60.47;54.73;;;1.90;99.90;;;;;;4939867;29;20098;-74
2024/01/27 01:54:37;;;;;;;137.53;127.77;;;1.90;99.90;;;;;;4949699;28;20409;-74
2024/01/27 01:57:04;;;;;;;117.40;108.72;;;1.90;99.90;;;;;;4935577;29;20295;-74
2024/01/27 01:59:29;;;;;;;79.10;73.07;;;1.90;99.90;;;;;;4947894;28;20061;-75
2024/01/27 02:01:55;;;;;;;94.13;86.87;;;1.90;99.90;;;;;;4951306;28;20408;-74
2024/01/27 02:04:21;;;;;;;77.20;71.60;;;1.80;99.90;;;;;;4945131;28;20134;-74
2024/01/27 02:06:46;;;;;;;88.33;81.97;;;1.80;99.90;;;;;;4933489;28;20059;-75
2024/01/27 02:09:12;;;;;;;120.23;111.90;;;1.80;99.90;;;;;;4935568;29;20059;-75
2024/01/27 02:11:38;;;;;;;78.47;72.57;;;1.80;99.90;;;;;;4934473;28;20550;-74
2024/01/27 02:14:04;;;;;;;78.77;72.47;;;1.80;99.90;;;;;;4937033;29;20039;-74
2024/01/27 02:16:30;;;;;;;43.58;39.45;;;1.80;99.90;;;;;;4935708;28;20869;-75
2024/01/27 02:18:56;;;;;;;67.33;62.07;;;1.80;99.90;;;;;;4949826;28;20074;-75
2024/01/27 02:21:21;;;;;;;74.27;68.13;;;1.80;99.90;;;;;;4951368;28;20505;-75
2024/01/27 02:23:47;;;;;;;61.90;56.93;;;1.80;99.90;;;;;;4952221;28;20047;-74
2024/01/27 02:26:13;;;;;;;35.53;31.67;;;1.70;99.90;;;;;;4949864;28;20413;-74
2024/01/27 02:28:38;;;;;;;34.80;31.17;;;1.80;99.90;;;;;;4949761;28;20052;-75
2024/01/27 02:31:04;;;;;;;38.97;28.60;;;1.70;99.90;;;;;;4930667;28;20472;-74
2024/01/27 02:33:30;;;;;;;36.53;32.90;;;1.70;99.90;;;;;;4925380;29;20051;-74
2024/01/27 02:35:56;;;;;;;41.90;37.92;;;1.70;99.90;;;;;;4955309;28;20036;-74
2024/01/27 02:38:21;;;;;;;35.23;31.03;;;1.70;99.90;;;;;;4933263;29;20046;-75
2024/01/27 02:40:47;;;;;;;62.00;56.70;;;1.70;99.90;;;;;;4950264;28;20052;-74
2024/01/27 02:43:13;;;;;;;50.07;45.13;;;1.60;99.90;;;;;;4943696;28;20049;-75
2024/01/27 02:45:38;;;;;;;54.57;49.70;;;1.70;99.90;;;;;;4949923;28;20639;-74
2024/01/27 02:48:04;;;;;;;66.33;61.03;;;1.70;99.90;;;;;;4946561;28;20408;-74
2024/01/27 02:50:30;;;;;;;103.35;95.97;;;1.60;99.90;;;;;;4951696;28;20102;-73
2024/01/27 02:52:56;;;;;;;182.20;169.97;;;1.60;99.90;;;;;;4953390;28;20489;-74
2024/01/27 02:55:21;;;;;;;77.60;71.87;;;1.70;99.90;;;;;;4945867;28;20073;-74
2024/01/27 02:57:47;;;;;;;90.33;83.40;;;1.70;99.90;;;;;;4939084;28;20098;-74
2024/01/27 03:00:13;;;;;;;88.07;81.43;;;1.70;99.90;;;;;;4934508;29;20035;-75
2024/01/27 03:02:39;;;;;;;52.63;47.50;;;1.60;99.90;;;;;;4936837;29;20509;-74
2024/01/27 03:05:05;;;;;;;45.63;41.33;;;1.60;99.90;;;;;;4953124;28;20043;-74
2024/01/27 03:07:31;;;;;;;34.20;28.90;;;1.60;99.90;;;;;;4954955;28;20309;-75
2024/01/27 03:09:56;;;;;;;54.47;49.73;;;1.50;99.90;;;;;;4940711;29;20126;-74
2024/01/27 03:12:23;;;;;;;52.87;47.93;;;1.50;99.90;;;;;;4938238;29;20035;-75
2024/01/27 03:14:49;;;;;;;33.67;30.30;;;1.50;99.90;;;;;;4950738;28;20070;-74
2024/01/27 03:17:15;;;;;;;38.95;34.78;;;1.50;99.90;;;;;;4951851;29;20141;-75
2024/01/27 03:19:41;;;;;;;48.50;44.15;;;1.40;99.90;;;;;;4943081;28;20517;-75
2024/01/27 03:22:06;;;;;;;42.90;38.63;;;1.40;99.90;;;;;;4945893;28;20097;-75
2024/01/27 03:24:32;;;;;;;46.93;42.83;;;1.40;99.90;;;;;;4941366;29;20047;-75
2024/01/27 03:26:58;;;;;;;44.43;39.97;;;1.40;99.90;;;;;;4954261;28;20051;-75
2024/01/27 03:29:23;;;;;;;38.20;33.63;;;1.40;99.90;;;;;;4944874;28;20079;-75
2024/01/27 03:31:49;;;;;;;47.60;43.47;;;1.40;99.90;;;;;;4946570;28;20047;-75
2024/01/27 03:34:15;;;;;;;72.03;66.87;;;1.40;99.90;;;;;;4941486;28;20069;-74
2024/01/27 03:36:41;;;;;;;40.83;32.87;;;1.40;99.90;;;;;;4944053;28;20035;-75
2024/01/27 03:39:07;;;;;;;32.47;29.10;;;1.40;99.90;;;;;;4935297;29;20303;-74
2024/01/27 03:41:33;;;;;;;77.93;72.50;;;1.50;99.90;;;;;;4934333;28;20034;-75
2024/01/27 03:43:59;;;;;;;54.37;48.83;;;1.50;99.90;;;;;;4943591;29;20562;-75
2024/01/27 03:46:24;;;;;;;47.07;43.23;;;1.50;99.90;;;;;;4949473;28;20044;-75
2024/01/27 03:48:50;;;;;;;31.70;28.43;;;1.50;99.90;;;;;;4953381;28;20498;-74
2024/01/27 03:51:16;;;;;;;48.27;43.90;;;1.60;99.90;;;;;;4946957;28;20052;-75
2024/01/27 03:53:42;;;;;;;49.63;45.40;;;1.60;99.90;;;;;;4932428;29;20090;-74
2024/01/27 03:56:12;;;;;;;45.13;40.90;;;1.60;99.90;;;;;;4952842;29;20068;-75
2024/01/27 03:58:38;;;;;;;75.85;70.13;;;1.60;99.90;;;;;;4941806;28;20071;-75
2024/01/27 04:01:04;;;;;;;39.22;35.58;;;1.60;99.90;;;;;;4934751;29;20066;-75
2024/01/27 04:03:30;;;;;;;28.58;23.23;;;1.60;99.90;;;;;;4953917;28;20042;-75
2024/01/27 04:05:56;;;;;;;43.27;39.40;;;1.60;99.90;;;;;;4953242;28;20043;-74
2024/01/27 04:08:21;;;;;;;39.97;35.87;;;1.60;99.90;;;;;;4927876;28;20063;-75
2024/01/27 04:10:47;;;;;;;41.97;37.77;;;1.60;99.90;;;;;;4945737;28;20043;-75
2024/01/27 04:13:13;;;;;;;61.53;56.53;;;1.60;99.90;;;;;;4936740;29;20062;-75
2024/01/27 04:15:38;;;;;;;89.53;83.13;;;1.70;99.90;;;;;;4929268;29;20078;-75
2024/01/27 04:18:08;;;;;;;53.57;48.13;;;1.70;99.90;;;;;;4930180;28;20035;-74
2024/01/27 04:20:35;;;;;;;44.28;39.25;;;1.80;99.90;;;;;;4950978;28;20053;-74
2024/01/27 04:23:00;;;;;;;41.95;37.78;;;1.80;99.90;;;;;;4946926;28;20082;-74
2024/01/27 04:25:26;;;;;;;80.60;74.03;;;1.80;99.90;;;;;;4950736;28;20070;-74
2024/01/27 04:27:53;;;;;;;51.23;46.63;;;1.80;99.90;;;;;;4953945;28;20307;-74
2024/01/27 04:30:19;;;;;;;75.80;69.78;;;1.80;99.90;;;;;;4947610;28;20497;-74
2024/01/27 04:32:44;;;;;;;32.78;29.65;;;1.80;99.90;;;;;;4947089;28;20485;-74
2024/01/27 04:35:11;;;;;;;44.33;40.17;;;1.80;99.90;;;;;;4946197;28;20038;-75
2024/01/27 04:37:37;;;;;;;80.18;74.63;;;1.80;99.90;;;;;;4951211;28;20039;-75
2024/01/27 04:40:05;;;;;;;61.37;56.17;;;1.70;99.90;;;;;;4954555;28;20026;-74
2024/01/27 04:42:39;;;;;;;56.30;51.92;;;1.70;99.90;;;;;;4958448;28;20043;-75
2024/01/27 04:45:06;;;;;;;66.97;61.40;;;1.70;99.90;;;;;;4951980;28;20177;-75
2024/01/27 04:47:32;;;;;;;57.97;53.17;;;1.70;99.90;;;;;;4951288;29;20051;-74
2024/01/27 04:49:58;;;;;;;86.30;79.83;;;1.70;99.90;;;;;;4934495;28;20034;-75
2024/01/27 04:52:24;;;;;;;55.67;51.17;;;1.70;99.90;;;;;;4952530;28;20303;-75
2024/01/27 04:54:49;;;;;;;49.10;44.42;;;1.70;99.90;;;;;;4928174;29;20155;-74
2024/01/27 04:57:16;;;;;;;50.17;45.73;;;1.70;99.90;;;;;;4932525;28;20134;-74
2024/01/27 04:59:42;;;;;;;67.50;62.00;;;1.70;99.90;;;;;;4948581;28;20043;-74
2024/01/27 05:02:07;;;;;;;71.90;66.73;;;1.70;99.90;;;;;;4937522;29;20043;-75
2024/01/27 05:04:33;;;;;;;34.17;30.93;;;1.70;99.90;;;;;;4948576;29;20808;-75
2024/01/27 05:06:59;;;;;;;81.57;75.77;;;1.60;99.90;;;;;;4950590;28;20142;-75
2024/01/27 05:09:25;;;;;;;43.42;39.50;;;1.60;99.90;;;;;;4945019;28;20106;-75
2024/01/27 05:11:52;;;;;;;60.77;55.77;;;1.60;99.90;;;;;;4947356;28;20568;-75
2024/01/27 05:14:18;;;;;;;60.03;55.50;;;1.60;99.90;;;;;;4958682;28;20034;-74
2024/01/27 05:16:44;;;;;;;48.50;43.83;;;1.70;99.90;;;;;;4931853;29;20516;-75
2024/01/27 05:19:11;;;;;;;37.47;33.67;;;1.70;99.90;;;;;;4946566;28;20054;-74
2024/01/27 05:21:38;;;;;;;50.40;46.15;;;1.70;99.90;;;;;;4944510;28;20091;-75
2024/01/27 05:24:04;;;;;;;68.85;63.15;;;1.70;99.90;;;;;;4948636;28;20050;-75
2024/01/27 05:26:30;;;;;;;89.82;83.45;;;1.70;99.90;;;;;;4941827;28;20060;-75
2024/01/27 05:28:55;;;;;;;56.57;51.37;;;1.70;99.90;;;;;;4926993;29;20044;-75
2024/01/27 05:31:21;;;;;;;46.10;42.00;;;1.70;99.90;;;;;;4931939;29;20461;-75
2024/01/27 05:33:47;;;;;;;79.17;73.57;;;1.70;99.90;;;;;;4937067;28;20166;-74
2024/01/27 05:36:13;;;;;;;70.67;65.27;;;1.70;99.90;;;;;;4942989;28;20095;-74
2024/01/27 05:38:38;;;;;;;75.67;69.73;;;1.70;99.90;;;;;;4954659;28;20524;-75
2024/01/27 05:41:04;;;;;;;112.90;105.10;;;1.80;99.90;;;;;;4925482;28;20100;-75
2024/01/27 05:43:30;;;;;;;77.10;71.10;;;1.90;99.90;;;;;;4946006;28;20054;-75
2024/01/27 05:45:56;;;;;;;68.53;63.07;;;1.90;99.90;;;;;;4941457;28;20039;-75
2024/01/27 05:48:22;;;;;;;60.63;55.67;;;1.80;99.90;;;;;;4949148;28;20412;-74
2024/01/27 05:50:58;;;;;;;100.30;92.53;;;1.80;99.90;;;;;;4951155;29;20117;-75
2024/01/27 05:53:24;;;;;;;79.05;73.00;;;1.80;99.90;;;;;;4953954;28;20042;-75
2024/01/27 05:55:50;;;;;;;43.95;40.20;;;1.80;99.90;;;;;;4955769;28;20513;-75
2024/01/27 05:58:15;;;;;;;92.73;85.83;;;1.80;99.90;;;;;;4931758;29;20051;-75
2024/01/27 06:00:44;;;;;;;49.90;44.73;;;1.70;99.90;;;;;;4949352;28;20039;-75
2024/01/27 06:03:10;;;;;;;84.18;77.95;;;1.70;99.90;;;;;;4948226;28;20046;-75
2024/01/27 06:05:37;;;;;;;54.10;49.28;;;1.80;99.90;;;;;;4943392;29;20531;-75
2024/01/27 06:08:03;;;;;;;64.85;59.75;;;1.80;99.90;;;;;;4946415;28;20056;-75
2024/01/27 06:10:30;;;;;;;63.60;58.42;;;1.80;99.90;;;;;;4950309;28;20042;-75
2024/01/27 06:12:56;;;;;;;82.90;75.93;;;1.80;99.90;;;;;;4935646;29;20047;-75
2024/01/27 06:15:22;;;;;;;86.40;79.60;;;1.80;99.90;;;;;;4948990;28;20047;-75
2024/01/27 06:17:47;;;;;;;84.67;77.93;;;1.80;99.90;;;;;;4958738;28;20213;-75
2024/01/27 06:20:13;;;;;;;81.03;74.60;;;1.80;99.90;;;;;;4951674;28;20046;-75
2024/01/27 06:22:39;;;;;;;74.63;68.80;;;1.90;99.90;;;;;;4938322;29;20553;-75
2024/01/27 06:25:05;;;;;;;87.20;79.87;;;1.80;99.90;;;;;;4954137;28;20054;-75
2024/01/27 06:27:30;;;;;;;67.70;61.78;;;1.80;99.90;;;;;;4948598;28;20090;-74
2024/01/27 06:29:56;;;;;;;86.50;79.63;;;1.80;99.90;;;;;;4965278;28;20133;-75
2024/01/27 06:32:22;;;;;;;59.30;54.33;;;1.70;99.90;;;;;;4929871;29;20498;-75
2024/01/27 06:34:47;;;;;;;69.03;63.50;;;1.70;99.90;;;;;;4930329;29;20457;-75
2024/01/27 06:37:13;;;;;;;73.90;67.53;;;1.70;99.90;;;;;;4956532;28;20119;-74
2024/01/27 06:39:39;;;;;;;40.73;36.37;;;1.70;99.90;;;;;;4942538;28;20093;-75
2024/01/27 06:42:04;;;;;;;45.37;40.90;;;1.70;99.90;;;;;;4941896;28;20072;-75
2024/01/27 06:44:30;;;;;;;53.80;48.67;;;1.70;99.90;;;;;;4920676;29;20648;-75
2024/01/27 06:46:56;;;;;;;74.30;68.33;;;1.70;99.90;;;;;;4948296;28;20074;-74
2024/01/27 06:49:21;;;;;;;72.50;67.13;;;1.70;99.90;;;;;;4952383;28;20153;-75
2024/01/27 06:51:47;;;;;;;50.70;43.23;;;1.70;99.90;;;;;;4945490;28;20045;-75
2024/01/27 06:54:13;;;;;;;88.93;81.93;;;1.70;99.90;;;;;;4950368;28;20044;-75
2024/01/27 06:56:39;;;;;;;78.70;72.47;;;1.70;99.90;;;;;;4935298;28;20039;-75
2024/01/27 06:59:04;;;;;;;36.13;32.67;;;1.70;99.90;;;;;;4940670;28;20032;-75
2024/01/27 07:01:30;;;;;;;49.07;44.00;;;1.70;99.90;;;;;;4955414;28;20047;-75
2024/01/27 07:03:56;;;;;;;85.83;79.50;;;1.70;99.90;;;;;;4957265;28;20512;-75
2024/01/27 07:06:21;;;;;;;55.77;51.20;;;1.60;99.90;;;;;;4928331;29;20495;-75
2024/01/27 07:08:47;;;;;;;76.47;69.80;;;1.70;99.90;;;;;;4952916;28;20047;-75
2024/01/27 07:11:13;;;;;;;52.40;48.17;;;1.70;99.90;;;;;;4947546;28;20043;-75
2024/01/27 07:13:40;;;;;;;68.27;61.97;;;1.70;99.90;;;;;;4950366;28;20043;-75
2024/01/27 07:16:06;;;;;;;91.35;84.35;;;1.80;99.90;;;;;;4932626;29;20058;-75
2024/01/27 07:18:34;;;;;;;61.83;56.37;;;1.80;99.90;;;;;;4953260;28;20043;-75
2024/01/27 07:21:01;;;;;;;67.28;61.42;;;1.80;99.90;;;;;;4932434;29;20050;-75
2024/01/27 07:23:26;;;;;;;116.72;108.18;;;1.80;99.90;;;;;;4951175;28;20122;-75
2024/01/27 07:25:52;;;;;;;47.67;42.83;;;1.80;99.90;;;;;;4952586;28;20127;-75
2024/01/27 07:28:18;;;;;;;123.80;114.50;;;1.90;99.90;;;;;;4952146;28;20048;-75
2024/01/27 07:30:44;;;;;;;49.63;40.38;;;1.90;99.90;;;;;;4948569;28;20043;-75
2024/01/27 07:33:10;;;;;;;50.08;45.67;;;2.00;99.90;;;;;;4947781;28;20043;-75
2024/01/27 07:35:36;;;;;;;52.97;47.57;;;2.00;99.90;;;;;;4953469;28;20039;-75
2024/01/27 07:38:02;;;;;;;75.77;69.53;;;2.00;99.90;;;;;;4947412;28;20035;-75
2024/01/27 07:40:27;;;;;;;92.03;84.53;;;1.90;99.90;;;;;;4954212;28;20406;-75
2024/01/27 07:42:54;;;;;;;84.27;77.17;;;1.90;99.90;;;;;;4945280;28;20051;-76
2024/01/27 07:45:19;;;;;;;91.05;84.43;;;2.00;99.90;;;;;;4951632;28;20424;-75
2024/01/27 07:47:45;;;;;;;56.60;51.70;;;2.00;99.90;;;;;;4934540;29;20035;-75
2024/01/27 07:50:11;;;;;;;37.40;33.43;;;2.10;99.90;;;;;;4946123;28;20058;-75
2024/01/27 07:52:36;;;;;;;81.17;74.03;;;2.00;99.90;;;;;;4935537;29;20521;-74
2024/01/27 07:55:02;;;;;;;114.20;105.47;;;2.00;99.90;;;;;;4947608;28;20482;-74
2024/01/27 07:57:28;;;;;;;99.05;90.50;;;2.00;99.90;;;;;;4935647;28;20031;-75
2024/01/27 07:59:54;;;;;;;51.30;46.30;;;2.10;99.90;;;;;;4937813;29;20051;-75
2024/01/27 08:02:20;;;;;;;108.73;100.70;;;2.10;99.90;;;;;;4927787;29;20044;-75
2024/01/27 08:04:45;;;;;;;82.20;75.30;;;2.20;99.90;;;;;;4945016;28;20043;-75
2024/01/27 08:07:14;;;;;;;235.80;216.67;;;2.20;99.90;;;;;;4922181;29;20421;-75
2024/01/27 08:09:41;;;;;;;74.53;68.40;;;2.30;99.90;;;;;;4945514;28;20426;-75
2024/01/27 08:12:07;;;;;;;78.93;72.05;;;2.40;99.90;;;;;;4936857;29;20055;-75
2024/01/27 08:14:33;;;;;;;82.33;76.00;;;2.40;99.90;;;;;;4927976;29;20047;-75
2024/01/27 08:16:59;;;;;;;144.60;134.13;;;2.50;99.90;;;;;;4933294;28;20486;-75
2024/01/27 08:19:26;;;;;;;97.72;90.70;;;2.50;99.90;;;;;;4955348;28;20087;-75
2024/01/27 08:21:52;;;;;;;104.00;96.38;;;2.50;99.90;;;;;;4925476;28;20498;-75
2024/01/27 08:24:18;;;;;;;56.83;51.80;;;2.60;99.90;;;;;;4951944;29;20055;-75
2024/01/27 08:26:44;;;;;;;110.20;102.43;;;2.60;99.90;;;;;;4946506;28;20035;-75
2024/01/27 08:29:09;;;;;;;101.10;93.40;;;2.60;99.90;;;;;;4952701;28;20047;-75
2024/01/27 08:31:37;;;;;;;130.23;120.60;;;2.70;99.90;;;;;;4950750;28;20055;-75
2024/01/27 08:34:03;;;;;;;118.15;108.75;;;2.70;99.90;;;;;;4937590;28;20035;-75
2024/01/27 08:36:29;;;;;;;92.60;85.00;;;2.70;99.90;;;;;;4949810;28;20406;-75
2024/01/27 08:38:54;;;;;;;215.23;198.60;;;2.80;99.90;;;;;;4944908;29;20046;-75
2024/01/27 08:41:20;;;;;;;92.77;84.97;;;2.80;99.90;;;;;;4949834;28;20051;-75
2024/01/27 08:43:46;;;;;;;114.43;106.13;;;2.90;99.90;;;;;;4930617;29;20035;-75
2024/01/27 08:46:13;;;;;;;65.67;59.67;;;2.90;99.90;;;;;;4929491;29;20126;-75
2024/01/27 08:48:41;;;;;;;83.65;77.28;;;2.90;99.90;;;;;;4922078;29;20039;-75
2024/01/27 08:51:09;;;;;;;105.72;97.35;;;3.00;99.90;;;;;;4930228;28;20078;-75
2024/01/27 08:53:35;;;;;;;158.13;147.60;;;3.00;99.90;;;;;;4940007;29;20035;-75
2024/01/27 08:56:01;;;;;;;100.60;93.10;;;3.10;99.90;;;;;;4931253;28;20497;-76
2024/01/27 08:58:27;;;;;;;121.37;112.27;;;3.20;99.90;;;;;;4934433;29;20043;-76
2024/01/27 09:00:52;;;;;;;228.27;211.17;;;3.20;99.90;;;;;;4928736;28;20141;-75
2024/01/27 09:03:20;;;;;;;129.47;120.93;;;3.30;99.90;;;;;;4946299;28;20404;-75
2024/01/27 09:05:46;;;;;;;163.35;150.85;;;3.30;99.90;;;;;;4928907;29;20506;-76
2024/01/27 09:08:12;;;;;;;103.28;95.72;;;3.40;99.90;;;;;;4944543;28;20145;-75
2024/01/27 09:10:38;;;;;;;180.03;167.63;;;3.50;99.90;;;;;;4928481;29;20481;-75
2024/01/27 09:13:04;;;;;;;173.77;161.47;;;3.60;99.90;;;;;;4928035;28;20039;-75
2024/01/27 09:15:30;;;;;;;149.07;138.82;;;3.60;99.90;;;;;;4944415;29;20047;-76
2024/01/27 09:17:56;;;;;;;120.85;112.07;;;3.70;99.90;;;;;;4931681;29;20597;-74
2024/01/27 09:20:22;;;;;;;166.60;154.73;;;3.80;99.90;;;;;;4935105;29;20032;-75
2024/01/27 09:22:50;;;;;;;96.00;88.40;;;3.80;99.90;;;;;;4950272;28;20075;-76
2024/01/27 09:25:16;;;;;;;96.10;88.18;;;3.90;99.90;;;;;;4932116;29;20506;-75
2024/01/27 09:27:42;;;;;;;151.53;141.63;;;3.90;99.90;;;;;;4947833;28;20055;-75
2024/01/27 09:30:08;;;;;;;129.63;121.13;;;4.00;99.90;;;;;;4952205;29;20287;-75
2024/01/27 09:32:34;;;;;;;201.70;186.77;;;4.00;99.90;;;;;;4952526;28;20047;-74
2024/01/27 09:35:00;;;;;;;168.10;155.93;;;4.10;99.90;;;;;;4937238;28;20046;-75
2024/01/27 09:37:26;;;;;;;137.37;127.97;;;4.10;99.90;;;;;;4948007;28;20039;-75
2024/01/27 09:39:51;;;;;;;278.87;259.13;;;4.20;99.90;;;;;;4952776;28;20034;-75
2024/01/27 09:42:21;;;;;;;171.37;160.00;;;4.30;99.90;;;;;;4951111;28;20079;-75
2024/01/27 09:44:49;;;;;;;154.68;143.90;;;4.30;99.90;;;;;;4954163;28;20039;-75
2024/01/27 09:47:15;;;;;;;209.55;194.13;;;4.40;99.90;;;;;;4937850;29;20039;-75
2024/01/27 09:49:42;;;;;;;132.13;123.53;;;4.50;99.90;;;;;;4944196;29;20051;-75
2024/01/27 09:52:08;;;;;;;245.77;228.90;;;4.50;99.90;;;;;;4932125;29;20050;-75
2024/01/27 09:54:35;;;;;;;246.88;229.73;;;4.60;99.90;;;;;;4937898;29;20039;-75
2024/01/27 09:57:02;;;;;;;146.73;136.82;;;4.70;99.90;;;;;;4941335;28;20042;-75
2024/01/27 09:59:28;;;;;;;296.17;273.92;;;4.80;99.90;;;;;;4939014;28;20036;-75
2024/01/27 10:01:56;;;;;;;216.80;200.80;;;4.80;99.90;;;;;;4945216;29;20043;-74
2024/01/27 10:04:23;;;;;;;414.73;384.73;;;4.90;99.90;;;;;;4923651;29;20048;-75
2024/01/27 10:06:50;;;;;;;296.45;274.67;;;5.00;99.90;;;;;;4946184;28;20094;-74
2024/01/27 10:09:17;;;;;;;288.00;268.70;;;5.10;99.90;;;;;;4936627;29;20102;-74
2024/01/27 10:11:46;;;;;;;196.75;184.10;;;5.10;99.90;;;;;;4946604;28;20122;-75
2024/01/27 10:14:12;;;;;;;255.60;236.65;;;5.20;99.90;;;;;;4942591;29;20409;-75
2024/01/27 10:16:42;;;;;;;288.70;270.00;;;5.20;99.90;;;;;;4943777;29;20043;-74
2024/01/27 10:19:15;;;;;;;356.73;330.35;;;5.30;99.90;;;;;;4943011;29;20039;-74
2024/01/27 10:21:41;;;;;;;312.35;288.67;;;5.40;99.90;;;;;;4948688;29;20114;-74
2024/01/27 10:24:07;;;;;;;400.63;369.97;;;5.40;99.90;;;;;;4946416;28;20074;-74
2024/01/27 10:26:34;;;;;;;304.80;284.00;;;5.50;99.90;;;;;;4931241;29;20099;-74
2024/01/27 10:29:01;;;;;;;515.33;469.67;;;5.50;99.90;;;;;;4930019;29;20071;-74
2024/01/27 10:31:34;;;;;;;324.05;300.38;;;5.50;99.90;;;;;;4925839;29;20035;-74
2024/01/27 10:34:09;;;;;;;410.75;378.58;;;5.60;99.90;;;;;;4943404;29;20490;-74
2024/01/27 10:36:42;;;;;;;;;;;5.60;99.90;;;;;;4939024;29;20043;-75
2024/01/27 10:39:16;;;;;;;170.50;159.32;;;5.60;99.90;;;;;;4965375;28;19925;-74
2024/01/27 10:41:44;;;;;;;343.02;317.70;;;5.60;99.90;;;;;;4966886;28;20051;-74
2024/01/27 10:44:13;;;;;;;269.63;251.27;;;5.70;99.90;;;;;;4960636;28;20489;-74
2024/01/27 10:46:42;;;;;;;263.20;245.30;;;5.70;99.90;;;;;;4943633;28;20043;-74
2024/01/27 10:49:12;;;;;;;439.13;404.10;;;5.80;99.90;;;;;;4940418;28;20074;-74
2024/01/27 10:51:40;;;;;;;424.02;390.00;;;5.90;99.90;;;;;;4948882;28;20397;-74
2024/01/27 10:54:09;;;;;;;456.58;416.73;;;5.90;99.90;;;;;;4942985;28;20082;-74
2024/01/27 10:56:38;;;;;;;371.23;343.45;;;6.00;99.90;;;;;;4949239;28;20127;-74
2024/01/27 10:59:05;;;;;;;414.10;380.70;;;6.00;99.90;;;;;;4950715;28;20121;-74
2024/01/27 11:01:34;;;;;;;460.90;421.45;;;6.10;99.90;;;;;;4950742;28;20142;-74
2024/01/27 11:04:03;;;;;;;530.08;485.17;;;6.10;99.90;;;;;;4950045;28;20134;-74
2024/01/27 11:06:31;;;;;;;424.48;391.63;;;6.20;99.90;;;;;;4925755;29;20065;-74
2024/01/27 11:08:57;;;;;;;294.33;272.25;;;6.20;99.90;;;;;;4953368;28;20050;-74
2024/01/27 11:11:23;;;;;;;448.25;411.40;;;6.30;99.90;;;;;;4937598;29;20058;-75
2024/01/27 11:13:50;;;;;;;407.83;375.60;;;6.30;99.90;;;;;;4963586;28;20043;-74
2024/01/27 11:16:18;;;;;;;711.05;641.88;;;6.40;99.90;;;;;;4957191;28;20298;-74
2024/01/27 11:18:44;;;;;;;391.40;362.17;;;6.50;99.90;;;;;;4957310;28;20062;-75
2024/01/27 11:21:15;;;;;;;439.00;403.67;;;6.50;99.90;;;;;;4937898;29;20138;-74
2024/01/27 11:23:42;;;;;;;455.25;420.00;;;6.60;99.90;;;;;;4932047;28;20118;-74
2024/01/27 11:26:09;;;;;;;337.20;312.42;;;6.60;99.90;;;;;;4949160;28;20488;-74
2024/01/27 11:28:35;;;;;;;370.05;342.27;;;6.70;99.90;;;;;;4944026;28;20041;-74
2024/01/27 11:31:06;;;;;;;472.05;433.70;;;6.70;99.90;;;;;;4924142;28;20889;-74
2024/01/27 11:33:32;;;;;;;403.20;371.88;;;6.70;99.90;;;;;;4926454;29;20054;-74
2024/01/27 11:36:05;;;;;;;583.83;531.53;;;6.80;99.90;;;;;;4936430;28;20031;-74
2024/01/27 11:38:32;;;;;;;557.60;509.75;;;6.80;99.90;;;;;;4939226;28;20051;-74
2024/01/27 11:40:59;;;;;;;542.00;491.83;;;6.90;99.90;;;;;;4948496;28;20035;-74
2024/01/27 11:43:25;;;;;;;547.58;496.42;;;6.90;99.90;;;;;;4948613;28;20114;-74
2024/01/27 11:45:58;;;;;;;428.15;396.30;;;6.90;99.90;;;;;;4943450;29;20071;-74
2024/01/27 11:48:24;;;;;;;390.08;360.85;;;6.90;99.90;;;;;;4945100;28;20043;-74
2024/01/27 11:51:03;;;;;;;438.85;404.10;;;7.00;99.90;;;;;;4945745;28;20063;-74
2024/01/27 11:53:28;;;;;;;317.70;293.38;;;7.00;99.90;;;;;;4937923;29;20046;-75
2024/01/27 11:55:56;;;;;;;395.50;366.67;;;7.00;99.90;;;;;;4948954;28;20043;-74
2024/01/27 11:58:22;;;;;;;444.13;410.08;;;7.00;99.90;;;;;;4948700;28;20396;-75
2024/01/27 12:00:48;;;;;;;494.13;452.17;;;7.00;99.90;;;;;;4960736;28;20074;-76
2024/01/27 12:03:13;;;;;;;466.03;427.00;;;7.10;99.90;;;;;;4947166;28;20046;-76
2024/01/27 12:05:39;;;;;;;370.53;344.47;;;7.10;99.90;;;;;;4936275;29;20043;-76
2024/01/27 12:08:08;;;;;;;369.60;341.67;;;7.10;99.90;;;;;;4939297;29;20119;-75
2024/01/27 12:10:33;;;;;;;410.00;379.10;;;7.10;99.90;;;;;;4938382;29;20044;-76
2024/01/27 12:13:00;;;;;;;335.17;312.23;;;7.10;99.90;;;;;;4936154;28;20048;-76
2024/01/27 12:15:26;;;;;;;467.95;431.30;;;7.20;99.90;;;;;;4955492;28;20123;-76
2024/01/27 12:17:52;;;;;;;569.43;518.63;;;7.20;99.90;;;;;;4954905;28;20074;-76
2024/01/27 12:20:18;;;;;;;419.27;385.63;;;7.10;99.90;;;;;;4950115;29;20046;-76
2024/01/27 12:22:44;;;;;;;411.30;380.00;;;7.20;99.90;;;;;;4960554;28;20047;-76
2024/01/27 12:25:13;;;;;;;609.97;550.35;;;7.20;99.90;;;;;;4941247;29;20054;-76